createdAt,value
2016-05-28T00:00:01.970Z,93.8
2016-05-28T00:00:11.954Z,94.1
2016-05-28T00:00:22.110Z,93.9
2016-05-28T00:00:32.095Z,93.6
2016-05-28T00:00:42.126Z,93.4
2016-05-28T00:00:52.098Z,92.8
2016-05-28T00:01:01.973Z,93.3
2016-05-28T00:01:12.098Z,93.3
2016-05-28T00:01:22.082Z,93.2
2016-05-28T00:01:31.926Z,93
2016-05-28T00:01:41.941Z,92.8
2016-05-28T00:01:52.069Z,92.5
2016-05-28T00:02:02.085Z,92.9
2016-05-28T00:02:11.913Z,92.3
2016-05-28T00:02:22.382Z,92.4
2016-05-28T00:02:32.085Z,92.6
2016-05-28T00:02:41.991Z,92.8
2016-05-28T00:02:51.947Z,92.9
2016-05-28T00:03:01.916Z,92.5
2016-05-28T00:03:12.072Z,93
2016-05-28T00:03:22.072Z,92.5
2016-05-28T00:03:31.900Z,92.4
2016-05-28T00:03:42.213Z,92.4
2016-05-28T00:03:52.059Z,92.4
2016-05-28T00:04:02.043Z,92.6
2016-05-28T00:04:12.059Z,92.6
2016-05-28T00:04:22.043Z,92.4
2016-05-28T00:04:32.059Z,92.7
2016-05-28T00:04:42.152Z,92.8
2016-05-28T00:04:51.796Z,92.3
2016-05-28T00:05:02.577Z,92.3
2016-05-28T00:05:12.046Z,92.2
2016-05-28T00:05:21.593Z,92.6
2016-05-28T00:05:31.859Z,92.1
2016-05-28T00:05:42.046Z,92.2
2016-05-28T00:05:52.049Z,92
2016-05-28T00:06:02.018Z,92
2016-05-28T00:06:12.033Z,92.2
2016-05-28T00:06:22.018Z,92
2016-05-28T00:06:32.018Z,92
2016-05-28T00:06:42.018Z,92
2016-05-28T00:06:51.848Z,92.1
2016-05-28T00:07:02.004Z,91.9
2016-05-28T00:07:11.989Z,92.1
2016-05-28T00:07:21.989Z,92.4
2016-05-28T00:07:31.848Z,91.6
2016-05-28T00:07:41.989Z,91.8
2016-05-28T00:07:51.852Z,91.9
2016-05-28T00:08:01.883Z,92.6
2016-05-28T00:08:12.008Z,92.8
2016-05-28T00:08:22.039Z,93.2
2016-05-28T00:08:31.993Z,93.3
2016-05-28T00:08:41.993Z,93.4
2016-05-28T00:08:51.979Z,93.4
2016-05-28T00:09:02.010Z,93.3
2016-05-28T00:09:11.963Z,93.7
2016-05-28T00:09:21.885Z,93.3
2016-05-28T00:09:31.979Z,93.2
2016-05-28T00:09:41.807Z,93.7
2016-05-28T00:09:51.965Z,93.5
2016-05-28T00:10:01.950Z,93.7
2016-05-28T00:10:11.965Z,93.8
2016-05-28T00:10:21.965Z,93.7
2016-05-28T00:10:31.950Z,93.5
2016-05-28T00:10:41.981Z,93.5
2016-05-28T00:10:51.829Z,93.9
2016-05-28T00:11:01.969Z,93.3
2016-05-28T00:11:12.001Z,93.4
2016-05-28T00:11:21.829Z,93.4
2016-05-28T00:11:31.922Z,93.2
2016-05-28T00:11:41.922Z,93.6
2016-05-28T00:11:51.924Z,93
2016-05-28T00:12:01.940Z,93.1
2016-05-28T00:12:11.940Z,93
2016-05-28T00:12:21.768Z,93
2016-05-28T00:12:31.924Z,93
2016-05-28T00:12:41.924Z,92.7
2016-05-28T00:12:51.912Z,92.9
2016-05-28T00:13:01.912Z,93.2
2016-05-28T00:13:11.771Z,93.2
2016-05-28T00:13:21.912Z,93.3
2016-05-28T00:13:31.756Z,93
2016-05-28T00:13:41.896Z,93.1
2016-05-28T00:13:51.946Z,93.8
2016-05-28T00:14:01.899Z,93.1
2016-05-28T00:14:11.759Z,93.3
2016-05-28T00:14:21.759Z,93.3
2016-05-28T00:14:31.899Z,93.7
2016-05-28T00:14:41.899Z,94.1
2016-05-28T00:14:51.745Z,94
2016-05-28T00:15:01.964Z,93.9
2016-05-28T00:15:11.901Z,93.8
2016-05-28T00:15:21.776Z,94.2
2016-05-28T00:15:31.870Z,93.8
2016-05-28T00:15:41.901Z,94.5
2016-05-28T00:15:51.732Z,94.3
2016-05-28T00:16:01.873Z,94
2016-05-28T00:16:11.889Z,93.8
2016-05-28T00:16:21.904Z,93.9
2016-05-28T00:16:31.873Z,93.8
2016-05-28T00:16:41.779Z,94.1
2016-05-28T00:16:51.844Z,93.8
2016-05-28T00:17:01.703Z,93.7
2016-05-28T00:17:11.844Z,93.3
2016-05-28T00:17:21.719Z,93.4
2016-05-28T00:17:31.687Z,93.6
2016-05-28T00:17:41.875Z,93.2
2016-05-28T00:17:51.831Z,93.6
2016-05-28T00:18:01.847Z,93.3
2016-05-28T00:18:11.847Z,93.4
2016-05-28T00:18:21.769Z,93.4
2016-05-28T00:18:31.722Z,93
2016-05-28T00:18:41.831Z,93.7
2016-05-28T00:18:51.834Z,93.4
2016-05-28T00:19:01.850Z,93.2
2016-05-28T00:19:12.053Z,93.3
2016-05-28T00:19:21.709Z,93.4
2016-05-28T00:19:31.772Z,93.3
2016-05-28T00:19:41.897Z,94
2016-05-28T00:19:51.962Z,93.5
2016-05-28T00:20:01.696Z,94
2016-05-28T00:20:11.946Z,93.6
2016-05-28T00:20:22.431Z,93.7
2016-05-28T00:20:31.665Z,94.4
2016-05-28T00:20:41.837Z,93.7
2016-05-28T00:20:51.808Z,93.8
2016-05-28T00:21:01.823Z,93.9
2016-05-28T00:21:11.636Z,93.8
2016-05-28T00:21:21.652Z,94
2016-05-28T00:21:31.777Z,93.7
2016-05-28T00:21:41.667Z,93.8
2016-05-28T00:21:51.795Z,93.5
2016-05-28T00:22:01.780Z,93.8
2016-05-28T00:22:11.764Z,93.8
2016-05-28T00:22:21.686Z,94
2016-05-28T00:22:31.780Z,93.5
2016-05-28T00:22:41.748Z,94.2
2016-05-28T00:22:51.767Z,94
2016-05-28T00:23:01.767Z,94
2016-05-28T00:23:11.611Z,93.8
2016-05-28T00:23:21.751Z,93.9
2016-05-28T00:23:31.751Z,94.3
2016-05-28T00:23:41.767Z,94.4
2016-05-28T00:23:51.989Z,94.2
2016-05-28T00:24:01.754Z,93.9
2016-05-28T00:24:11.739Z,94
2016-05-28T00:24:21.739Z,94
2016-05-28T00:24:31.754Z,93.9
2016-05-28T00:24:41.739Z,94
2016-05-28T00:24:51.725Z,94
2016-05-28T00:25:01.631Z,94
2016-05-28T00:25:11.819Z,94.1
2016-05-28T00:25:21.725Z,93.8
2016-05-28T00:25:31.569Z,94.2
2016-05-28T00:25:41.584Z,94.3
2016-05-28T00:25:51.836Z,94.3
2016-05-28T00:26:01.711Z,94.6
2016-05-28T00:26:11.555Z,94.4
2016-05-28T00:26:21.727Z,94.2
2016-05-28T00:26:31.758Z,93.9
2016-05-28T00:26:41.696Z,93.8
2016-05-28T00:26:51.731Z,93.9
2016-05-28T00:27:01.544Z,94.3
2016-05-28T00:27:11.715Z,94.3
2016-05-28T00:27:21.684Z,94.3
2016-05-28T00:27:31.700Z,94.3
2016-05-28T00:27:41.715Z,94.1
2016-05-28T00:27:51.702Z,94.4
2016-05-28T00:28:01.530Z,94.3
2016-05-28T00:28:11.686Z,94.4
2016-05-28T00:28:21.671Z,94.2
2016-05-28T00:28:31.749Z,94.3
2016-05-28T00:28:41.686Z,94.3
2016-05-28T00:28:51.377Z,93.9
2016-05-28T00:29:01.674Z,94
2016-05-28T00:29:11.408Z,94.4
2016-05-28T00:29:21.658Z,93.8
2016-05-28T00:29:31.517Z,93.9
2016-05-28T00:29:41.674Z,94
2016-05-28T00:29:51.661Z,93.9
2016-05-28T00:30:01.645Z,93.7
2016-05-28T00:30:11.645Z,93.6
2016-05-28T00:30:21.661Z,94
2016-05-28T00:30:31.677Z,93.8
2016-05-28T00:30:41.661Z,93.9
2016-05-28T00:30:51.647Z,93.7
2016-05-28T00:31:01.366Z,93.6
2016-05-28T00:31:11.663Z,94.2
2016-05-28T00:31:21.491Z,93.9
2016-05-28T00:31:31.647Z,93.9
2016-05-28T00:31:41.632Z,94.5
2016-05-28T00:31:51.463Z,94.4
2016-05-28T00:32:01.619Z,94.3
2016-05-28T00:32:11.635Z,94.5
2016-05-28T00:32:21.650Z,94
2016-05-28T00:32:31.619Z,94.5
2016-05-28T00:32:41.650Z,94.5
2016-05-28T00:32:51.685Z,94
2016-05-28T00:33:01.606Z,94.4
2016-05-28T00:33:11.450Z,94.3
2016-05-28T00:33:21.622Z,94
2016-05-28T00:33:31.435Z,94.5
2016-05-28T00:33:41.622Z,94.1
2016-05-28T00:33:51.437Z,94.1
2016-05-28T00:34:01.608Z,94
2016-05-28T00:34:11.687Z,94.2
2016-05-28T00:34:21.608Z,94.2
2016-05-28T00:34:31.452Z,94.3
2016-05-28T00:34:41.608Z,94.8
2016-05-28T00:34:51.518Z,94.5
2016-05-28T00:35:01.580Z,94.3
2016-05-28T00:35:11.643Z,94.7
2016-05-28T00:35:21.752Z,94.5
2016-05-28T00:35:31.799Z,94.7
2016-05-28T00:35:41.580Z,94.5
2016-05-28T00:35:51.599Z,94.5
2016-05-28T00:36:01.583Z,94.5
2016-05-28T00:36:11.458Z,94.6
2016-05-28T00:36:21.568Z,94.6
2016-05-28T00:36:31.614Z,94.6
2016-05-28T00:36:41.396Z,94.5
2016-05-28T00:36:51.399Z,94.9
2016-05-28T00:37:01.414Z,95.1
2016-05-28T00:37:11.555Z,95
2016-05-28T00:37:21.539Z,95
2016-05-28T00:37:31.571Z,94.7
2016-05-28T00:37:41.414Z,94.9
2016-05-28T00:37:51.385Z,95.2
2016-05-28T00:38:01.526Z,95
2016-05-28T00:38:11.401Z,94.8
2016-05-28T00:38:21.541Z,94.6
2016-05-28T00:38:31.557Z,95.5
2016-05-28T00:38:41.526Z,95.4
2016-05-28T00:38:51.216Z,95.5
2016-05-28T00:39:01.357Z,95.5
2016-05-28T00:39:11.357Z,95.5
2016-05-28T00:39:21.529Z,95.4
2016-05-28T00:39:31.419Z,96
2016-05-28T00:39:41.419Z,95.8
2016-05-28T00:39:51.531Z,95.7
2016-05-28T00:40:01.515Z,95.7
2016-05-28T00:40:11.609Z,95.8
2016-05-28T00:40:21.499Z,95.6
2016-05-28T00:40:31.374Z,95.5
2016-05-28T00:40:41.484Z,95.2
2016-05-28T00:40:51.581Z,95.4
2016-05-28T00:41:01.502Z,95.4
2016-05-28T00:41:11.315Z,95.7
2016-05-28T00:41:21.471Z,95.4
2016-05-28T00:41:31.565Z,94.8
2016-05-28T00:41:41.456Z,94.8
2016-05-28T00:41:51.552Z,94.9
2016-05-28T00:42:01.474Z,94.8
2016-05-28T00:42:11.474Z,94.9
2016-05-28T00:42:21.474Z,94.9
2016-05-28T00:42:31.474Z,95
2016-05-28T00:42:41.474Z,94.7
2016-05-28T00:42:51.321Z,95.1
2016-05-28T00:43:01.321Z,95.2
2016-05-28T00:43:11.477Z,94.8
2016-05-28T00:43:21.446Z,95.1
2016-05-28T00:43:31.758Z,94.7
2016-05-28T00:43:41.446Z,94.5
2016-05-28T00:43:51.526Z,94.5
2016-05-28T00:44:01.432Z,94.7
2016-05-28T00:44:11.464Z,94.6
2016-05-28T00:44:21.464Z,94.4
2016-05-28T00:44:31.495Z,94.6
2016-05-28T00:44:41.307Z,94.5
2016-05-28T00:44:51.498Z,94.8
2016-05-28T00:45:01.435Z,94.7
2016-05-28T00:45:11.482Z,94.7
2016-05-28T00:45:21.217Z,94.5
2016-05-28T00:45:31.435Z,95
2016-05-28T00:45:41.420Z,94.9
2016-05-28T00:45:51.454Z,95
2016-05-28T00:46:01.423Z,95.3
2016-05-28T00:46:11.454Z,94.9
2016-05-28T00:46:21.266Z,94.8
2016-05-28T00:46:31.438Z,95
2016-05-28T00:46:41.110Z,94.8
2016-05-28T00:46:51.441Z,95
2016-05-28T00:47:01.238Z,95
2016-05-28T00:47:11.457Z,95
2016-05-28T00:47:21.426Z,94.9
2016-05-28T00:47:31.426Z,94.7
2016-05-28T00:47:41.316Z,95
2016-05-28T00:47:51.396Z,95.1
2016-05-28T00:48:01.256Z,94.8
2016-05-28T00:48:11.412Z,95.2
2016-05-28T00:48:21.365Z,94.8
2016-05-28T00:48:31.381Z,95
2016-05-28T00:48:41.365Z,94.8
2016-05-28T00:48:51.212Z,94.7
2016-05-28T00:49:01.384Z,94.9
2016-05-28T00:49:11.212Z,94.7
2016-05-28T00:49:21.353Z,95.1
2016-05-28T00:49:31.603Z,94.9
2016-05-28T00:49:41.384Z,95.1
2016-05-28T00:49:51.605Z,94.5
2016-05-28T00:50:02.448Z,94.5
2016-05-28T00:50:11.605Z,94.8
2016-05-28T00:50:21.651Z,95
2016-05-28T00:50:31.776Z,94.6
2016-05-28T00:50:41.323Z,94.5
2016-05-28T00:50:51.217Z,94.5
2016-05-28T00:51:01.342Z,94.7
2016-05-28T00:51:11.170Z,94.5
2016-05-28T00:51:21.311Z,94.6
2016-05-28T00:51:31.358Z,94.7
2016-05-28T00:51:41.061Z,94.5
2016-05-28T00:51:51.329Z,94.7
2016-05-28T00:52:01.329Z,94.3
2016-05-28T00:52:11.361Z,94.4
2016-05-28T00:52:21.314Z,94.3
2016-05-28T00:52:31.298Z,94.5
2016-05-28T00:52:41.173Z,94.2
2016-05-28T00:52:51.363Z,94.3
2016-05-28T00:53:01.300Z,94.2
2016-05-28T00:53:11.300Z,94.2
2016-05-28T00:53:21.159Z,94.3
2016-05-28T00:53:31.128Z,93.8
2016-05-28T00:53:41.284Z,93.9
2016-05-28T00:53:51.287Z,94
2016-05-28T00:54:01.303Z,93.9
2016-05-28T00:54:11.334Z,94
2016-05-28T00:54:21.178Z,94.3
2016-05-28T00:54:31.272Z,94.2
2016-05-28T00:54:41.272Z,94.1
2016-05-28T00:54:51.119Z,94
2016-05-28T00:55:01.165Z,94.1
2016-05-28T00:55:11.119Z,94.2
2016-05-28T00:55:21.259Z,94.2
2016-05-28T00:55:31.103Z,94.2
2016-05-28T00:55:41.259Z,93.9
2016-05-28T00:55:51.261Z,94.2
2016-05-28T00:56:01.261Z,94
2016-05-28T00:56:11.261Z,94.4
2016-05-28T00:56:21.246Z,94.2
2016-05-28T00:56:31.261Z,94.2
2016-05-28T00:56:41.246Z,94.3
2016-05-28T00:56:51.093Z,94
2016-05-28T00:57:01.093Z,93.9
2016-05-28T00:57:11.093Z,94.1
2016-05-28T00:57:21.234Z,93.8
2016-05-28T00:57:31.093Z,94.1
2016-05-28T00:57:41.078Z,94.3
2016-05-28T00:57:51.236Z,94.7
2016-05-28T00:58:01.236Z,94.5
2016-05-28T00:58:11.236Z,94.7
2016-05-28T00:58:21.236Z,94.5
2016-05-28T00:58:31.220Z,94.7
2016-05-28T00:58:41.205Z,94.4
2016-05-28T00:58:51.222Z,94.2
2016-05-28T00:59:01.050Z,94.2
2016-05-28T00:59:11.207Z,94.3
2016-05-28T00:59:21.050Z,94.3
2016-05-28T00:59:31.207Z,94.4
2016-05-28T00:59:41.191Z,94.2
2016-05-28T00:59:51.039Z,94.3
2016-05-28T01:00:01.195Z,94.3
2016-05-28T01:00:10.898Z,94.3
2016-05-28T01:00:21.195Z,94.3
2016-05-28T01:00:31.211Z,94.2
2016-05-28T01:00:41.179Z,94.1
2016-05-28T01:00:51.181Z,94.5
2016-05-28T01:01:01.228Z,94.1
2016-05-28T01:01:11.306Z,94.4
2016-05-28T01:01:21.463Z,94.2
2016-05-28T01:01:31.228Z,94.2
2016-05-28T01:01:41.041Z,94.2
2016-05-28T01:01:51.465Z,94.1
2016-05-28T01:02:01.012Z,93.8
2016-05-28T01:02:11.012Z,94
2016-05-28T01:02:21.152Z,94.3
2016-05-28T01:02:31.387Z,94.3
2016-05-28T01:02:41.137Z,94.7
2016-05-28T01:02:51.171Z,94.5
2016-05-28T01:03:01.140Z,94.7
2016-05-28T01:03:11.233Z,94.6
2016-05-28T01:03:20.874Z,94.8
2016-05-28T01:03:31.155Z,95.1
2016-05-28T01:03:41.124Z,95.2
2016-05-28T01:03:51.002Z,94.9
2016-05-28T01:04:01.127Z,94.9
2016-05-28T01:04:11.189Z,95.5
2016-05-28T01:04:20.986Z,95.9
2016-05-28T01:04:30.830Z,95.8
2016-05-28T01:04:41.127Z,96
2016-05-28T01:04:51.130Z,96.1
2016-05-28T01:05:01.661Z,96
2016-05-28T01:05:11.771Z,95.8
2016-05-28T01:05:21.208Z,96.3
2016-05-28T01:05:30.974Z,95.8
2016-05-28T01:05:41.099Z,95.8
2016-05-28T01:05:51.023Z,96.3
2016-05-28T01:06:01.101Z,95.9
2016-05-28T01:06:11.116Z,96.1
2016-05-28T01:06:21.101Z,95.8
2016-05-28T01:06:30.944Z,96.1
2016-05-28T01:06:40.991Z,96
2016-05-28T01:06:51.104Z,95.4
2016-05-28T01:07:01.072Z,95.2
2016-05-28T01:07:10.932Z,95.6
2016-05-28T01:07:21.088Z,95.9
2016-05-28T01:07:30.932Z,95.6
2016-05-28T01:07:41.088Z,96
2016-05-28T01:07:50.779Z,95.9
2016-05-28T01:08:01.091Z,96.2
2016-05-28T01:08:11.107Z,95.7
2016-05-28T01:08:21.060Z,96
2016-05-28T01:08:31.154Z,96.2
2016-05-28T01:08:41.060Z,95.9
2016-05-28T01:08:51.016Z,96.2
2016-05-28T01:09:01.078Z,96.1
2016-05-28T01:09:11.000Z,95.6
2016-05-28T01:09:21.000Z,95.7
2016-05-28T01:09:31.078Z,96
2016-05-28T01:09:41.032Z,95.8
2016-05-28T01:09:50.941Z,96.2
2016-05-28T01:10:00.894Z,95.7
2016-05-28T01:10:11.066Z,95.9
2016-05-28T01:10:21.097Z,95.6
2016-05-28T01:10:30.910Z,95.7
2016-05-28T01:10:41.050Z,96.4
2016-05-28T01:10:50.723Z,96.2
2016-05-28T01:11:01.114Z,95.9
2016-05-28T01:11:11.051Z,96.3
2016-05-28T01:11:21.114Z,96.4
2016-05-28T01:11:30.864Z,95.8
2016-05-28T01:11:41.161Z,96
2016-05-28T01:11:51.148Z,96.2
2016-05-28T01:12:01.070Z,96.5
2016-05-28T01:12:11.148Z,96.4
2016-05-28T01:12:21.007Z,96.4
2016-05-28T01:12:30.914Z,96.4
2016-05-28T01:12:41.054Z,95.9
2016-05-28T01:12:51.057Z,95.8
2016-05-28T01:13:00.995Z,95.9
2016-05-28T01:13:11.026Z,96
2016-05-28T01:13:20.917Z,95.7
2016-05-28T01:13:31.026Z,96.1
2016-05-28T01:13:40.917Z,95.6
2016-05-28T01:13:51.248Z,95.8
2016-05-28T01:14:01.060Z,96
2016-05-28T01:14:10.888Z,95.8
2016-05-28T01:14:20.873Z,95.8
2016-05-28T01:14:31.107Z,95.9
2016-05-28T01:14:40.904Z,95.7
2016-05-28T01:14:51.109Z,95.4
2016-05-28T01:15:00.812Z,95.4
2016-05-28T01:15:11.078Z,95.2
2016-05-28T01:15:20.812Z,95.2
2016-05-28T01:15:31.093Z,95.6
2016-05-28T01:15:40.843Z,95.6
2016-05-28T01:15:50.847Z,95.6
2016-05-28T01:16:00.972Z,95.8
2016-05-28T01:16:10.972Z,96.3
2016-05-28T01:16:21.066Z,95.7
2016-05-28T01:16:31.004Z,96.6
2016-05-28T01:16:40.941Z,96.4
2016-05-28T01:16:50.943Z,96.7
2016-05-28T01:17:00.943Z,95.9
2016-05-28T01:17:10.787Z,95.8
2016-05-28T01:17:20.912Z,95.7
2016-05-28T01:17:30.974Z,95.8
2016-05-28T01:17:40.912Z,95.9
2016-05-28T01:17:50.759Z,96.1
2016-05-28T01:18:00.915Z,96.1
2016-05-28T01:18:10.915Z,96.2
2016-05-28T01:18:20.915Z,96.1
2016-05-28T01:18:30.899Z,95.7
2016-05-28T01:18:40.899Z,96.4
2016-05-28T01:18:50.761Z,96.1
2016-05-28T01:19:00.745Z,96.2
2016-05-28T01:19:10.948Z,96.5
2016-05-28T01:19:21.214Z,96.8
2016-05-28T01:19:31.604Z,96.7
2016-05-28T01:19:40.761Z,96.8
2016-05-28T01:19:51.154Z,96.9
2016-05-28T01:20:00.732Z,96.9
2016-05-28T01:20:10.748Z,96.6
2016-05-28T01:20:21.170Z,96.6
2016-05-28T01:20:30.779Z,96.6
2016-05-28T01:20:40.873Z,96.6
2016-05-28T01:20:50.735Z,96.6
2016-05-28T01:21:00.907Z,96.5
2016-05-28T01:21:10.876Z,96.7
2016-05-28T01:21:20.860Z,96.5
2016-05-28T01:21:30.860Z,96.6
2016-05-28T01:21:40.720Z,96.7
2016-05-28T01:21:50.862Z,96.6
2016-05-28T01:22:00.878Z,97.1
2016-05-28T01:22:10.847Z,97.1
2016-05-28T01:22:20.862Z,97.3
2016-05-28T01:22:30.691Z,97.2
2016-05-28T01:22:40.847Z,97.9
2016-05-28T01:22:50.881Z,97.2
2016-05-28T01:23:00.834Z,97.1
2016-05-28T01:23:10.897Z,97.2
2016-05-28T01:23:20.834Z,97.5
2016-05-28T01:23:30.834Z,97.3
2016-05-28T01:23:40.834Z,96.9
2016-05-28T01:23:50.868Z,96.7
2016-05-28T01:24:00.837Z,96.9
2016-05-28T01:24:10.697Z,96.5
2016-05-28T01:24:20.665Z,96.9
2016-05-28T01:24:30.665Z,96.3
2016-05-28T01:24:40.790Z,96.3
2016-05-28T01:24:50.683Z,96.7
2016-05-28T01:25:00.824Z,96.2
2016-05-28T01:25:10.886Z,96.4
2016-05-28T01:25:20.792Z,95.9
2016-05-28T01:25:30.855Z,95.9
2016-05-28T01:25:40.777Z,95.9
2016-05-28T01:25:50.795Z,96.3
2016-05-28T01:26:00.780Z,96.2
2016-05-28T01:26:10.842Z,96
2016-05-28T01:26:20.639Z,95.9
2016-05-28T01:26:30.811Z,95.7
2016-05-28T01:26:40.639Z,95.9
2016-05-28T01:26:50.641Z,96
2016-05-28T01:27:00.782Z,95.9
2016-05-28T01:27:10.829Z,95.9
2016-05-28T01:27:20.782Z,96
2016-05-28T01:27:30.813Z,96.2
2016-05-28T01:27:40.610Z,96.1
2016-05-28T01:27:50.817Z,95.7
2016-05-28T01:28:00.770Z,95.9
2016-05-28T01:28:10.754Z,96.3
2016-05-28T01:28:20.598Z,96.3
2016-05-28T01:28:30.598Z,96.4
2016-05-28T01:28:40.739Z,96.3
2016-05-28T01:28:50.773Z,96.3
2016-05-28T01:29:00.742Z,96.3
2016-05-28T01:29:10.742Z,96.3
2016-05-28T01:29:20.789Z,96.3
2016-05-28T01:29:30.773Z,95.7
2016-05-28T01:29:40.586Z,96
2016-05-28T01:29:50.744Z,96.6
2016-05-28T01:30:00.416Z,96.3
2016-05-28T01:30:10.603Z,96.4
2016-05-28T01:30:20.588Z,96.2
2016-05-28T01:30:30.744Z,95.7
2016-05-28T01:30:40.744Z,96.3
2016-05-28T01:30:50.762Z,96.2
2016-05-28T01:31:00.716Z,96.6
2016-05-28T01:31:10.747Z,97
2016-05-28T01:31:20.591Z,96.8
2016-05-28T01:31:30.591Z,96.9
2016-05-28T01:31:40.700Z,96.9
2016-05-28T01:31:50.749Z,96.4
2016-05-28T01:32:00.702Z,96.6
2016-05-28T01:32:10.577Z,96.8
2016-05-28T01:32:20.530Z,96.8
2016-05-28T01:32:30.718Z,96.2
2016-05-28T01:32:40.671Z,96.3
2016-05-28T01:32:50.533Z,96.5
2016-05-28T01:33:00.689Z,96.6
2016-05-28T01:33:10.721Z,95.8
2016-05-28T01:33:20.674Z,96.2
2016-05-28T01:33:30.674Z,96.3
2016-05-28T01:33:40.658Z,96.5
2016-05-28T01:33:50.661Z,95.7
2016-05-28T01:34:00.661Z,96
2016-05-28T01:34:10.677Z,95.9
2016-05-28T01:34:20.661Z,95.6
2016-05-28T01:34:30.255Z,95.7
2016-05-28T01:34:40.849Z,95.4
2016-05-28T01:34:51.382Z,95.4
2016-05-28T01:35:00.741Z,95.4
2016-05-28T01:35:10.382Z,95.3
2016-05-28T01:35:20.538Z,95.1
2016-05-28T01:35:30.804Z,95
2016-05-28T01:35:40.476Z,94.7
2016-05-28T01:35:50.666Z,94.6
2016-05-28T01:36:00.479Z,95
2016-05-28T01:36:10.666Z,95.3
2016-05-28T01:36:20.650Z,95.1
2016-05-28T01:36:30.635Z,95
2016-05-28T01:36:40.619Z,95
2016-05-28T01:36:50.482Z,95.2
2016-05-28T01:37:00.622Z,95.1
2016-05-28T01:37:10.622Z,95
2016-05-28T01:37:20.607Z,94.9
2016-05-28T01:37:30.466Z,94.9
2016-05-28T01:37:40.607Z,94.7
2016-05-28T01:37:50.609Z,94.7
2016-05-28T01:38:00.452Z,94.9
2016-05-28T01:38:10.468Z,94.9
2016-05-28T01:38:20.593Z,94.8
2016-05-28T01:38:30.624Z,94.9
2016-05-28T01:38:40.609Z,94.8
2016-05-28T01:38:50.627Z,95.2
2016-05-28T01:39:00.596Z,94.9
2016-05-28T01:39:10.612Z,94.8
2016-05-28T01:39:20.596Z,95
2016-05-28T01:39:30.471Z,95
2016-05-28T01:39:40.612Z,95.1
2016-05-28T01:39:50.598Z,94.8
2016-05-28T01:40:00.582Z,95.3
2016-05-28T01:40:10.582Z,95.1
2016-05-28T01:40:20.567Z,95.1
2016-05-28T01:40:30.442Z,95
2016-05-28T01:40:40.457Z,94.6
2016-05-28T01:40:50.414Z,95
2016-05-28T01:41:00.571Z,95.4
2016-05-28T01:41:10.571Z,95.4
2016-05-28T01:41:20.399Z,95.3
2016-05-28T01:41:30.414Z,95.4
2016-05-28T01:41:40.539Z,95.8
2016-05-28T01:41:50.557Z,95.6
2016-05-28T01:42:00.541Z,96
2016-05-28T01:42:10.385Z,95.7
2016-05-28T01:42:20.573Z,96.4
2016-05-28T01:42:30.620Z,95.8
2016-05-28T01:42:40.541Z,96.1
2016-05-28T01:42:50.435Z,96.9
2016-05-28T01:43:00.544Z,96.7
2016-05-28T01:43:10.544Z,96.5
2016-05-28T01:43:20.513Z,96.7
2016-05-28T01:43:30.560Z,96.7
2016-05-28T01:43:40.513Z,96.8
2016-05-28T01:43:50.516Z,96.8
2016-05-28T01:44:00.501Z,96.8
2016-05-28T01:44:10.532Z,96.8
2016-05-28T01:44:20.516Z,96.8
2016-05-28T01:44:30.235Z,96.6
2016-05-28T01:44:40.501Z,96.6
2016-05-28T01:44:50.503Z,95.9
2016-05-28T01:45:00.503Z,95.9
2016-05-28T01:45:10.346Z,95.8
2016-05-28T01:45:20.487Z,96.2
2016-05-28T01:45:30.409Z,95.8
2016-05-28T01:45:40.487Z,96.2
2016-05-28T01:45:50.474Z,95.8
2016-05-28T01:46:00.490Z,96.2
2016-05-28T01:46:10.474Z,96.3
2016-05-28T01:46:20.506Z,96.3
2016-05-28T01:46:30.474Z,96.2
2016-05-28T01:46:40.474Z,96.8
2016-05-28T01:46:50.493Z,96.2
2016-05-28T01:47:00.149Z,96.8
2016-05-28T01:47:10.477Z,97
2016-05-28T01:47:20.509Z,97
2016-05-28T01:47:30.462Z,96.9
2016-05-28T01:47:40.446Z,96.9
2016-05-28T01:47:50.448Z,96.4
2016-05-28T01:48:00.307Z,96.5
2016-05-28T01:48:10.307Z,96.6
2016-05-28T01:48:20.276Z,96.4
2016-05-28T01:48:30.432Z,95.9
2016-05-28T01:48:40.432Z,96.5
2016-05-28T01:48:50.279Z,96.2
2016-05-28T01:49:00.467Z,95.9
2016-05-28T01:49:10.420Z,96
2016-05-28T01:49:20.420Z,95.7
2016-05-28T01:49:30.170Z,95.5
2016-05-28T01:49:40.295Z,95.4
2016-05-28T01:49:50.282Z,95.6
2016-05-28T01:50:00.485Z,95
2016-05-28T01:50:10.267Z,95.5
2016-05-28T01:50:20.423Z,94.8
2016-05-28T01:50:30.251Z,95.1
2016-05-28T01:50:40.392Z,94.9
2016-05-28T01:50:50.284Z,94.7
2016-05-28T01:51:00.425Z,94.9
2016-05-28T01:51:10.253Z,95
2016-05-28T01:51:20.097Z,95.2
2016-05-28T01:51:30.237Z,94.8
2016-05-28T01:51:40.378Z,94.5
2016-05-28T01:51:50.381Z,94.6
2016-05-28T01:52:00.397Z,94.6
2016-05-28T01:52:10.428Z,94.5
2016-05-28T01:52:20.381Z,94.5
2016-05-28T01:52:30.240Z,94.6
2016-05-28T01:52:40.381Z,94
2016-05-28T01:52:50.367Z,94.3
2016-05-28T01:53:00.352Z,94.2
2016-05-28T01:53:10.383Z,93.9
2016-05-28T01:53:20.195Z,93.8
2016-05-28T01:53:30.367Z,94
2016-05-28T01:53:40.055Z,94
2016-05-28T01:53:50.195Z,94.1
2016-05-28T01:54:00.355Z,94.6
2016-05-28T01:54:10.339Z,94.2
2016-05-28T01:54:20.355Z,94
2016-05-28T01:54:30.355Z,94
2016-05-28T01:54:40.183Z,93.9
2016-05-28T01:54:50.420Z,94
2016-05-28T01:55:00.358Z,93.9
2016-05-28T01:55:10.326Z,94.3
2016-05-28T01:55:20.201Z,93.7
2016-05-28T01:55:30.030Z,94.1
2016-05-28T01:55:40.170Z,94
2016-05-28T01:55:50.311Z,94.1
2016-05-28T01:56:00.173Z,93.6
2016-05-28T01:56:10.329Z,93.5
2016-05-28T01:56:20.345Z,93.6
2016-05-28T01:56:30.189Z,93.7
2016-05-28T01:56:40.298Z,93.5
2016-05-28T01:56:50.142Z,93.8
2016-05-28T01:57:00.161Z,93.6
2016-05-28T01:57:10.332Z,93.6
2016-05-28T01:57:20.317Z,94
2016-05-28T01:57:30.301Z,93.8
2016-05-28T01:57:40.301Z,94.1
2016-05-28T01:57:50.286Z,94
2016-05-28T01:58:00.288Z,94
2016-05-28T01:58:10.288Z,93.8
2016-05-28T01:58:20.303Z,94.3
2016-05-28T01:58:30.288Z,94.4
2016-05-28T01:58:40.272Z,94
2016-05-28T01:58:50.319Z,94.1
2016-05-28T01:59:00.275Z,94
2016-05-28T01:59:10.275Z,94.1
2016-05-28T01:59:20.134Z,94.3
2016-05-28T01:59:30.291Z,94.3
2016-05-28T01:59:40.119Z,94.2
2016-05-28T01:59:50.306Z,94.5
2016-05-28T02:00:00.122Z,94.5
2016-05-28T02:00:10.294Z,94.6
2016-05-28T02:00:20.090Z,94.5
2016-05-28T02:00:30.262Z,94.3
2016-05-28T02:00:40.122Z,94.6
2016-05-28T02:00:50.090Z,94.6
2016-05-28T02:01:00.046Z,94.5
2016-05-28T02:01:10.280Z,94.8
2016-05-28T02:01:20.249Z,94.7
2016-05-28T02:01:30.264Z,94.8
2016-05-28T02:01:40.124Z,94.1
2016-05-28T02:01:50.092Z,94.6
2016-05-28T02:02:00.252Z,94.5
2016-05-28T02:02:10.236Z,94.1
2016-05-28T02:02:20.220Z,94.1
2016-05-28T02:02:30.220Z,94.2
2016-05-28T02:02:40.080Z,93.8
2016-05-28T02:02:50.220Z,94.3
2016-05-28T02:03:00.269Z,94
2016-05-28T02:03:10.207Z,94.3
2016-05-28T02:03:20.066Z,94
2016-05-28T02:03:30.191Z,93.8
2016-05-28T02:03:40.222Z,94
2016-05-28T02:03:50.191Z,94.3
2016-05-28T02:04:00.194Z,94.1
2016-05-28T02:04:10.069Z,94.2
2016-05-28T02:04:20.210Z,94.1
2016-05-28T02:04:29.960Z,94
2016-05-28T02:04:40.116Z,94.5
2016-05-28T02:04:50.288Z,94
2016-05-28T02:05:00.400Z,94
2016-05-28T02:05:10.416Z,93.9
2016-05-28T02:05:20.213Z,93.7
2016-05-28T02:05:30.025Z,93.8
2016-05-28T02:05:40.213Z,94.4
2016-05-28T02:05:50.166Z,94.2
2016-05-28T02:05:59.888Z,94.4
2016-05-28T02:06:10.153Z,94.1
2016-05-28T02:06:20.060Z,94.3
2016-05-28T02:06:30.169Z,94
2016-05-28T02:06:40.185Z,94.6
2016-05-28T02:06:50.153Z,94
2016-05-28T02:07:00.156Z,94.1
2016-05-28T02:07:10.016Z,94.3
2016-05-28T02:07:20.203Z,94.5
2016-05-28T02:07:30.000Z,94.6
2016-05-28T02:07:40.094Z,94.5
2016-05-28T02:07:50.000Z,94.8
2016-05-28T02:08:00.158Z,94.6
2016-05-28T02:08:10.143Z,94.6
2016-05-28T02:08:20.143Z,94.8
2016-05-28T02:08:29.986Z,94.6
2016-05-28T02:08:39.971Z,94.6
2016-05-28T02:08:50.111Z,94.5
2016-05-28T02:09:00.146Z,94.3
2016-05-28T02:09:09.989Z,94.3
2016-05-28T02:09:20.099Z,94.2
2016-05-28T02:09:29.958Z,94.5
2016-05-28T02:09:40.114Z,94.3
2016-05-28T02:09:49.974Z,94.3
2016-05-28T02:10:00.117Z,94.3
2016-05-28T02:10:10.117Z,94.2
2016-05-28T02:10:20.102Z,94.3
2016-05-28T02:10:30.086Z,94.3
2016-05-28T02:10:39.977Z,94.1
2016-05-28T02:10:50.117Z,94.1
2016-05-28T02:10:59.995Z,94
2016-05-28T02:11:10.105Z,94.2
2016-05-28T02:11:20.089Z,94.6
2016-05-28T02:11:30.089Z,93.8
2016-05-28T02:11:39.980Z,94.6
2016-05-28T02:11:50.089Z,93.7
2016-05-28T02:12:00.122Z,94.5
2016-05-28T02:12:10.091Z,93.8
2016-05-28T02:12:20.076Z,94.6
2016-05-28T02:12:29.951Z,93.8
2016-05-28T02:12:40.357Z,94.1
2016-05-28T02:12:50.076Z,94.1
2016-05-28T02:13:00.078Z,93.9
2016-05-28T02:13:10.062Z,94
2016-05-28T02:13:20.078Z,93.8
2016-05-28T02:13:30.046Z,94
2016-05-28T02:13:40.062Z,94
2016-05-28T02:13:50.062Z,93.9
2016-05-28T02:13:59.924Z,94
2016-05-28T02:14:10.049Z,94.2